Current | Forecast
Updated: 11:00 AM JST on August 21, 2017
Observed at Osaka Airport, Japan
Temperature 91°F
Humidity 43%
Dew Point 66°F
Wind WSW at 6 mph
Pressure 29.89 in (Steady)
Conditions Partly Cloudy
Visibility 6.2 miles
UV 11 out of 16
Clouds (FEW) : 3000 ft
Yesterday's Maximum 95°F
Yesterday's Minimum 77°F approx.
Yesterday's Cooling Degree Days 21 approx.
Sunrise5:22 AM JST
Sunset6:39 PM JST
Moon Rise4:26 AM JST
Moon Set6:19 PM JST
Moon PhaseMoon Phase
Waning Crescent
Raw METARMETAR RJOO 210200Z 24005KT 160V280 9999 FEW030 33/19 Q1012 RMK 1CU030 A2989


Monday
. High: 80° F.
Tuesday
. High: 75° F.
Wednesday
. High: 73° F.
Thursday
. High: 77° F.
Friday
. High: 82° F.
Saturday
. High: 78° F.
Sunday
. High: 78° F.
Monday
. High: 82° F.

Units: English | Metric

Find the Weather for any City, State or Zipcode, or Country:

U.S. State List | Severe Weather | Tropical Storms | Ski Conditions
United States | Canada | Central America | South America | Asia | Europe | Australia | Africa | Islands

Weather Underground

© Copyright 2017
The Weather Company, LLC